Airfield :
LOGIN :

Register | Disclaimer

   EN    FR    IT 

 










Legend :    VFR   Marginal VFR   IFR   Intensive IFR   Very Intensive IFR
Visi :
Ceiling :
>= 8 km
>= 3000ft
5 to 8 km
1000 to 3000 ft
1500m to 5 km
500 to 1000 ft
800 to 1500m
200 to 500 ft
< 800m
< 200 ft
Symbols :   Thunderstorms  Fog  Heavy snow  Heavy precipitations  Wind > 20 kt
SIGMETs :     Misc.  Thunderstorms  Icing  Turbulence  Mountain Waves  Volcanic Ashes






- Airport Elevation : 433 ft
- IATA code : CCF


LFMK - Carcassonne

CURRENT METAR :
  • 300730Z AUTO 00000KT CAVOK 07/07 Q1026 NOSIG

EXPIRED METARs :
  • 300700Z AUTO VRB02KT CAVOK 06/06 Q1026 NOSIG
  • 300630Z AUTO VRB02KT CAVOK 06/06 Q1026 NOSIG
  • 300600Z AUTO VRB02KT 9000 NSC 05/05 Q1026 TEMPO 0800 FG VV///
  • 300530Z AUTO VRB02KT 7000 FEW003 06/05 Q1026 NOSIG
  • 300500Z AUTO 28001KT 6000 1800 VV/// 05/05 Q1025 BECMG NSC

TAF AMD TAF LFMK
Valid from the 30 at 05:00 until the 31 at 03:00 UTC


300531Z 3005/3103 VRB04KT 9999 FEW015
TEMPO 3005/3007 4000 BR BKN014
PROB30
TEMPO 3005/3007 0800 FG VV///



MET'MAP, your aeronautical weather chart ! - Copyright ORBIFLY December 2007 - Disclaimer

ORBIFLY MET'MAP TEAM :

Programming & Development : Alexandra Zaïnal
Concept & original design : Baudouin d'Aumeries
Assistance for programming : Marc-Olivier Méhu
Technical & hardware support : Manuel Goepfert

Contact : metmap@orbifly.com




SOURCES & CREDITS :

   NOAA